Terminal Aerodrome Forecast
Issued by NWS

Current Version | Previous Version | Text Only | Print | Product List | Glossary On
Versions: 1 2 3 4 5 6 7 8 9 10 11 12 13 14 15 16
000
FTUS41 KPHI 210500
TAFPNE
TAF
KPNE 210522Z 2106/2206 20003KT P6SM BKN100
     FM211500 26005KT P6SM SCT050 BKN100
     FM212100 32005KT P6SM -SHRA BKN050
     FM220200 35003KT P6SM VCSH OVC040=

USA.gov is the U.S. government's official web portal to all federal, state and local government web resources and services.